Time;durP1;ratioP1;P1;durP2;ratioP2;P2;SDS_P1;SDS_P2;PMS_P1;PMS_P2;Temp;Humidity;BMP_temperature;BMP_pressure;BME280_temperature;BME280_humidity;BME280_pressure;Samples;Min_cycle;Max_cycle;Signal;HPM_P1;HPM_P2
2022/12/21 00:00:53;;;;;;;35.00;4.32;;;6.00;99.90;;;;;;4937721;29;20114;-92
2022/12/21 00:03:19;;;;;;;26.75;3.45;;;6.00;99.90;;;;;;4937030;29;20110;-92
2022/12/21 00:05:45;;;;;;;25.73;5.03;;;6.00;99.90;;;;;;4937434;29;20024;-91
2022/12/21 00:08:11;;;;;;;21.67;5.97;;;6.00;99.90;;;;;;4937248;29;20039;-93
2022/12/21 00:10:36;;;;;;;19.67;4.20;;;6.00;99.90;;;;;;4936669;29;20071;-91
2022/12/21 00:13:03;;;;;;;21.33;3.92;;;6.10;99.90;;;;;;4938193;29;20035;-93
2022/12/21 00:15:28;;;;;;;23.50;5.03;;;6.10;99.90;;;;;;4937340;29;20030;-95
2022/12/21 00:17:54;;;;;;;24.92;4.88;;;6.10;99.90;;;;;;4937026;29;20043;-90
2022/12/21 00:20:20;;;;;;;27.65;4.57;;;6.10;99.90;;;;;;4936656;29;20039;-94
2022/12/21 00:22:45;;;;;;;21.20;4.22;;;6.10;99.90;;;;;;4937657;29;20126;-93
2022/12/21 00:25:11;;;;;;;25.17;4.78;;;6.10;99.90;;;;;;4937815;29;20030;-94
2022/12/21 00:27:37;;;;;;;28.98;4.38;;;6.10;99.90;;;;;;4937586;29;20040;-93
2022/12/21 00:30:03;;;;;;;29.67;4.18;;;6.10;99.90;;;;;;4943912;29;20028;-94
2022/12/21 00:32:29;;;;;;;28.67;7.30;;;6.10;99.90;;;;;;4946531;29;20051;-93
2022/12/21 00:34:54;;;;;;;32.83;3.80;;;6.20;99.90;;;;;;4946189;29;20032;-93
2022/12/21 00:37:20;;;;;;;26.38;5.65;;;6.10;99.90;;;;;;4947987;29;20035;-93
2022/12/21 00:39:46;;;;;;;22.98;3.55;;;6.20;99.90;;;;;;4944694;29;20063;-92
2022/12/21 00:42:14;;;;;;;18.50;3.80;;;6.20;99.90;;;;;;4941748;29;20112;-93
2022/12/21 00:44:40;;;;;;;17.27;2.80;;;6.20;99.90;;;;;;4937861;29;20130;-93
2022/12/21 00:47:05;;;;;;;10.38;1.98;;;6.20;99.90;;;;;;4937976;29;20259;-93
2022/12/21 00:49:31;;;;;;;31.58;3.47;;;6.20;99.90;;;;;;4937101;29;20032;-93
2022/12/21 00:51:57;;;;;;;22.60;4.38;;;6.20;99.90;;;;;;4937048;29;20040;-92
2022/12/21 00:54:23;;;;;;;17.50;3.10;;;6.20;99.90;;;;;;4936999;29;20056;-91
2022/12/21 00:56:48;;;;;;;23.83;3.92;;;6.30;99.90;;;;;;4936926;29;20059;-93
2022/12/21 00:59:14;;;;;;;25.27;4.78;;;6.30;99.90;;;;;;4936715;29;20064;-93
2022/12/21 01:01:40;;;;;;;22.15;4.10;;;6.30;99.90;;;;;;4936342;29;20061;-92
2022/12/21 01:04:08;;;;;;;32.22;3.97;;;6.30;99.90;;;;;;4936371;29;20027;-94
2022/12/21 01:06:34;;;;;;;19.92;3.28;;;6.30;99.90;;;;;;4936074;29;20521;-93
2022/12/21 01:09:00;;;;;;;18.38;3.13;;;6.40;99.90;;;;;;4936144;29;20505;-92
2022/12/21 01:11:28;;;;;;;25.00;4.25;;;6.30;99.90;;;;;;4936681;29;20043;-91
2022/12/21 01:13:58;;;;;;;20.00;3.47;;;6.40;99.90;;;;;;4936223;29;20036;-92
2022/12/21 01:16:27;;;;;;;25.17;3.17;;;6.40;99.90;;;;;;4935848;29;20031;-93
2022/12/21 01:18:53;;;;;;;15.43;3.80;;;6.40;99.90;;;;;;4936228;29;20055;-92
2022/12/21 01:21:25;;;;;;;21.50;3.60;;;6.40;99.90;;;;;;4935652;29;20043;-91
2022/12/21 01:23:52;;;;;;;16.30;3.42;;;6.40;99.90;;;;;;4935641;29;20098;-93
2022/12/21 01:26:18;;;;;;;16.40;2.67;;;6.40;99.90;;;;;;4935790;29;20066;-93
2022/12/21 01:28:45;;;;;;;28.27;4.25;;;6.40;99.90;;;;;;4937539;29;20046;-91
2022/12/21 01:31:11;;;;;;;24.40;3.53;;;6.50;99.90;;;;;;4935431;29;20036;-92
2022/12/21 01:33:37;;;;;;;23.15;4.05;;;6.40;99.90;;;;;;4935673;29;20040;-91
2022/12/21 01:36:09;;;;;;;25.90;4.57;;;6.50;99.90;;;;;;4936076;29;20024;-92
2022/12/21 01:38:39;;;;;;;26.42;4.63;;;6.50;99.90;;;;;;4935446;29;20039;-91
2022/12/21 01:41:05;;;;;;;18.05;3.25;;;6.50;99.90;;;;;;4935204;29;20118;-92
2022/12/21 01:43:44;;;;;;;19.17;2.92;;;6.60;99.90;;;;;;4935417;29;20126;-92
2022/12/21 01:46:16;;;;;;;18.63;3.53;;;6.50;99.90;;;;;;4935371;29;20486;-92
2022/12/21 01:48:47;;;;;;;19.90;2.70;;;6.60;99.90;;;;;;4935784;29;20039;-91
2022/12/21 01:51:14;;;;;;;20.13;2.28;;;6.60;99.90;;;;;;4935141;29;20070;-92
2022/12/21 01:53:48;;;;;;;17.15;2.25;;;6.60;99.90;;;;;;4941625;29;20109;-92
2022/12/21 01:56:19;;;;;;;11.88;2.30;;;6.60;99.90;;;;;;4947443;29;20031;-92
2022/12/21 01:58:45;;;;;;;20.73;2.22;;;6.60;99.90;;;;;;4942257;29;20046;-95
2022/12/21 02:01:11;;;;;;;12.43;2.33;;;6.60;99.90;;;;;;4957991;29;20035;-93
2022/12/21 02:03:46;;;;;;;23.23;3.30;;;6.60;99.90;;;;;;4956666;29;20030;-93
2022/12/21 02:06:22;;;;;;;18.38;2.45;;;6.60;99.90;;;;;;4955841;29;20062;-93
2022/12/21 02:08:48;;;;;;;13.00;2.50;;;6.60;99.90;;;;;;4936259;29;20035;-94
2022/12/21 02:11:15;;;;;;;15.13;2.50;;;6.50;99.90;;;;;;4935796;29;20035;-94
2022/12/21 02:13:41;;;;;;;18.33;2.78;;;6.50;99.90;;;;;;4935231;29;20031;-93
2022/12/21 02:16:46;;;;;;;15.38;2.17;;;6.50;99.90;;;;;;4934683;29;20035;-93
2022/12/21 02:19:34;;;;;;;20.10;2.67;;;6.50;99.90;;;;;;4935199;29;20028;-91
2022/12/21 02:22:05;;;;;;;15.68;2.05;;;6.50;99.90;;;;;;4935012;29;20047;-94
2022/12/21 02:24:50;;;;;;;20.58;2.88;;;6.50;99.90;;;;;;4935801;29;20438;-93
2022/12/21 02:27:46;;;;;;;16.40;2.85;;;6.50;99.90;;;;;;4934896;29;20652;-93
2022/12/21 02:30:19;;;;;;;13.02;2.60;;;6.50;99.90;;;;;;4934201;29;20032;-91
2022/12/21 02:33:14;;;;;;;14.35;2.17;;;6.50;99.90;;;;;;4934780;29;20516;-94
2022/12/21 02:36:15;;;;;;;16.85;2.83;;;6.50;99.90;;;;;;4934574;29;20028;-93
2022/12/21 02:39:29;;;;;;;10.68;1.95;;;6.50;99.90;;;;;;4922889;29;20152;-94
2022/12/21 02:42:02;;;;;;;11.43;2.20;;;6.50;99.90;;;;;;4883745;29;20020;-91
2022/12/21 02:44:55;;;;;;;16.65;2.20;;;6.50;99.90;;;;;;4879949;29;20036;-93
2022/12/21 02:47:50;;;;;;;21.23;2.65;;;6.50;99.90;;;;;;4894952;29;20068;-92
2022/12/21 02:50:21;;;;;;;21.63;2.83;;;6.50;99.90;;;;;;4879256;29;20025;-92
2022/12/21 02:52:53;;;;;;;10.68;2.15;;;6.50;99.90;;;;;;4879478;29;20123;-92
2022/12/21 02:55:18;;;;;;;14.57;2.20;;;6.50;99.90;;;;;;4880044;29;20494;-92
2022/12/21 02:57:45;;;;;;;20.08;2.92;;;6.50;99.90;;;;;;4895343;29;20071;-92
2022/12/21 03:00:18;;;;;;;11.45;2.53;;;6.50;99.90;;;;;;4879944;29;20033;-92
2022/12/21 03:02:44;;;;;;;17.23;3.35;;;6.50;99.90;;;;;;4895076;29;20115;-92
2022/12/21 03:05:15;;;;;;;12.93;2.20;;;6.50;99.90;;;;;;4894962;29;20687;-94
2022/12/21 03:07:46;;;;;;;15.32;2.50;;;6.50;99.90;;;;;;4895397;29;20074;-93
2022/12/21 03:10:35;;;;;;;11.45;2.15;;;6.50;99.90;;;;;;4895201;29;20036;-93
2022/12/21 03:13:28;;;;;;;15.95;1.83;;;6.50;99.90;;;;;;4933179;29;20040;-93
2022/12/21 03:16:12;;;;;;;15.73;2.25;;;6.50;99.90;;;;;;4934333;29;20058;-93
2022/12/21 03:19:02;;;;;;;21.80;2.35;;;6.50;99.90;;;;;;4934650;29;20027;-95
2022/12/21 03:21:50;;;;;;;8.30;1.88;;;6.50;99.90;;;;;;4934157;29;20051;-94
2022/12/21 03:24:37;;;;;;;9.40;2.13;;;6.50;99.90;;;;;;4934722;29;20032;-91
2022/12/21 03:27:10;;;;;;;12.18;1.95;;;6.50;99.90;;;;;;4936139;29;20163;-92
2022/12/21 03:29:47;;;;;;;9.93;2.10;;;6.50;99.90;;;;;;4935057;29;20031;-94
2022/12/21 03:32:18;;;;;;;6.18;1.65;;;6.50;99.90;;;;;;4939611;29;20528;-91
2022/12/21 03:34:48;;;;;;;11.88;2.30;;;6.50;99.90;;;;;;4947336;29;20023;-91
2022/12/21 03:37:14;;;;;;;14.73;2.10;;;6.50;99.90;;;;;;4944195;29;20032;-91
2022/12/21 03:39:47;;;;;;;9.05;1.80;;;6.50;99.90;;;;;;4942370;29;20117;-91
2022/12/21 03:42:27;;;;;;;13.88;2.35;;;6.50;99.90;;;;;;4942369;29;20062;-92
2022/12/21 03:45:22;;;;;;;10.60;1.80;;;6.50;99.90;;;;;;4938493;29;20030;-91
2022/12/21 03:47:58;;;;;;;8.88;1.73;;;6.60;99.90;;;;;;4935969;29;20489;-92
2022/12/21 03:50:28;;;;;;;9.75;1.70;;;6.50;99.90;;;;;;4935472;29;20035;-93
2022/12/21 03:53:05;;;;;;;8.73;1.30;;;6.50;99.90;;;;;;4935038;29;20036;-93
2022/12/21 03:55:37;;;;;;;14.35;2.25;;;6.50;99.90;;;;;;4934147;29;20131;-91
2022/12/21 03:58:03;;;;;;;10.43;1.98;;;6.50;99.90;;;;;;4936991;29;20024;-92
2022/12/21 04:00:38;;;;;;;8.75;1.77;;;6.50;99.90;;;;;;4937603;29;20152;-93
2022/12/21 04:03:17;;;;;;;14.43;1.60;;;6.50;99.90;;;;;;4937398;29;20035;-92
2022/12/21 04:05:59;;;;;;;10.13;1.52;;;6.50;99.90;;;;;;4936972;29;20099;-91
2022/12/21 04:08:26;;;;;;;13.55;2.38;;;6.50;99.90;;;;;;4936991;29;20032;-92
2022/12/21 04:10:52;;;;;;;9.32;1.20;;;6.50;99.90;;;;;;4936432;29;20034;-91
2022/12/21 04:13:18;;;;;;;8.57;1.20;;;6.50;99.90;;;;;;4936967;29;20027;-93
2022/12/21 04:21:13;;;;;;;4.68;0.93;;;6.60;99.90;;;;;;4938036;29;20681;-92
2022/12/21 04:29:07;;;;;;;3.80;0.68;;;6.60;99.90;;;;;;4938008;29;20541;-93
2022/12/21 04:31:32;;;;;;;2.83;0.50;;;6.70;99.90;;;;;;4936607;29;20039;-92
2022/12/21 04:33:58;;;;;;;2.80;0.70;;;6.70;99.90;;;;;;4936862;29;20046;-93
2022/12/21 04:39:08;;;;;;;3.63;0.55;;;6.70;99.90;;;;;;4938922;29;20441;-92
2022/12/21 04:41:33;;;;;;;1.83;0.40;;;6.70;99.90;;;;;;4937163;29;20024;-93
2022/12/21 04:43:59;;;;;;;2.60;0.80;;;6.70;99.90;;;;;;4939187;29;20198;-92
2022/12/21 04:46:25;;;;;;;4.38;0.50;;;6.70;99.90;;;;;;4940520;29;20020;-93
2022/12/21 04:48:51;;;;;;;2.63;0.60;;;6.70;99.90;;;;;;4943310;29;20058;-93
2022/12/21 04:51:20;;;;;;;1.63;0.40;;;6.80;99.90;;;;;;4944838;29;20115;-92
2022/12/21 04:53:47;;;;;;;4.53;0.90;;;6.80;99.90;;;;;;4936730;29;20560;-91
2022/12/21 04:56:13;;;;;;;0.65;0.65;;;6.70;99.90;;;;;;4936573;29;20031;-94
2022/12/21 04:58:40;;;;;;;4.80;0.63;;;6.70;99.90;;;;;;4936447;29;20071;-93
2022/12/21 05:01:20;;;;;;;2.53;0.52;;;6.70;99.90;;;;;;4936277;29;20032;-93
2022/12/21 05:03:47;;;;;;;6.15;0.50;;;6.70;99.90;;;;;;4936438;29;20039;-93
2022/12/21 05:06:15;;;;;;;1.27;0.38;;;6.60;99.90;;;;;;4936113;29;20035;-91
2022/12/21 05:08:41;;;;;;;1.63;0.38;;;6.60;99.90;;;;;;4935463;29;20039;-94
2022/12/21 05:11:12;;;;;;;4.05;0.65;;;6.50;99.90;;;;;;4936463;29;20046;-92
2022/12/21 05:13:39;;;;;;;4.32;0.77;;;6.50;99.90;;;;;;4937032;29;20019;-92
2022/12/21 05:16:08;;;;;;;3.33;0.52;;;6.40;99.90;;;;;;4936410;29;20027;-93
2022/12/21 05:18:35;;;;;;;5.03;0.70;;;6.40;99.90;;;;;;4935995;29;20055;-93
2022/12/21 05:21:01;;;;;;;3.47;0.70;;;6.30;99.90;;;;;;4936105;29;20035;-92
2022/12/21 05:23:26;;;;;;;3.55;1.00;;;6.30;99.90;;;;;;4934671;29;20035;-93
2022/12/21 05:25:52;;;;;;;8.43;0.82;;;6.20;99.90;;;;;;4935989;29;20481;-92
2022/12/21 05:28:18;;;;;;;4.47;0.60;;;6.20;99.90;;;;;;4936076;29;20036;-93
2022/12/21 05:30:44;;;;;;;1.88;0.68;;;6.20;99.90;;;;;;4935688;29;20027;-93
2022/12/21 05:33:09;;;;;;;3.13;0.80;;;6.10;99.90;;;;;;4935593;29;20035;-92
2022/12/21 05:35:39;;;;;;;6.68;0.80;;;6.10;99.90;;;;;;4935765;29;20036;-92
2022/12/21 05:38:06;;;;;;;6.25;0.68;;;6.10;99.90;;;;;;4936184;29;20028;-93
2022/12/21 05:40:33;;;;;;;6.90;1.00;;;6.10;99.90;;;;;;4936235;29;20095;-92
2022/12/21 05:42:59;;;;;;;8.45;1.00;;;6.00;99.90;;;;;;4935511;29;20036;-94
2022/12/21 05:45:25;;;;;;;2.47;0.85;;;6.00;99.90;;;;;;4935775;29;20054;-94
2022/12/21 05:47:51;;;;;;;3.35;0.50;;;5.90;99.90;;;;;;4935493;29;20051;-93
2022/12/21 05:50:22;;;;;;;2.75;0.73;;;5.90;99.90;;;;;;4936629;29;20114;-93
2022/12/21 05:52:47;;;;;;;5.28;0.70;;;5.90;99.90;;;;;;4935143;29;20069;-91
2022/12/21 05:55:14;;;;;;;3.47;1.08;;;5.80;99.90;;;;;;4935460;29;20138;-93
2022/12/21 05:57:39;;;;;;;1.88;0.88;;;5.80;99.90;;;;;;4935780;29;20103;-91
2022/12/21 06:00:06;;;;;;;1.20;0.80;;;5.80;99.90;;;;;;4935375;29;20114;-92
2022/12/21 06:02:31;;;;;;;7.20;0.93;;;5.80;99.90;;;;;;4935289;29;20122;-92
2022/12/21 06:05:14;;;;;;;5.05;0.60;;;5.80;99.90;;;;;;4934743;29;20593;-92
2022/12/21 06:07:40;;;;;;;5.32;0.60;;;5.80;99.90;;;;;;4935374;29;20024;-92
2022/12/21 06:10:07;;;;;;;3.92;1.00;;;5.80;99.90;;;;;;4935484;29;20028;-93
2022/12/21 06:12:33;;;;;;;2.28;0.85;;;5.80;99.90;;;;;;4934617;29;20043;-93
2022/12/21 06:14:59;;;;;;;7.93;0.88;;;5.70;99.90;;;;;;4934929;29;20059;-93
2022/12/21 06:17:29;;;;;;;3.42;0.95;;;5.80;99.90;;;;;;4934245;29;20032;-93
2022/12/21 06:19:58;;;;;;;3.10;0.73;;;5.70;99.90;;;;;;4935071;29;20020;-93
2022/12/21 06:22:23;;;;;;;3.28;0.90;;;5.70;99.90;;;;;;4935270;29;20044;-94
2022/12/21 06:24:49;;;;;;;2.63;0.70;;;5.70;99.90;;;;;;4935284;29;20038;-93
2022/12/21 06:27:15;;;;;;;3.83;0.88;;;5.60;99.90;;;;;;4935094;29;20508;-94
2022/12/21 06:29:40;;;;;;;3.60;0.75;;;5.60;99.90;;;;;;4934976;29;20031;-92
2022/12/21 06:32:06;;;;;;;5.30;1.15;;;5.60;99.90;;;;;;4934829;29;20067;-92
2022/12/21 06:34:32;;;;;;;5.90;0.80;;;5.60;99.90;;;;;;4935010;29;20023;-93
2022/12/21 06:36:57;;;;;;;6.72;1.00;;;5.60;99.90;;;;;;4934743;29;20086;-92
2022/12/21 06:39:23;;;;;;;3.92;0.75;;;5.60;99.90;;;;;;4935642;29;20118;-91
2022/12/21 06:41:51;;;;;;;6.28;0.90;;;5.60;99.90;;;;;;4935591;29;20556;-93
2022/12/21 06:44:17;;;;;;;4.00;0.90;;;5.60;99.90;;;;;;4935858;29;20032;-93
2022/12/21 06:46:43;;;;;;;4.47;1.40;;;5.60;99.90;;;;;;4946486;29;20441;-93
2022/12/21 06:49:08;;;;;;;6.43;1.30;;;5.60;99.90;;;;;;4944810;29;20521;-93
2022/12/21 06:51:34;;;;;;;5.60;0.82;;;5.60;99.90;;;;;;4943940;29;20038;-92
2022/12/21 06:54:00;;;;;;;9.20;1.35;;;5.60;99.90;;;;;;4941782;29;20426;-91
2022/12/21 06:56:30;;;;;;;6.90;1.45;;;5.60;99.90;;;;;;4939876;29;20508;-92
2022/12/21 06:58:56;;;;;;;8.15;0.95;;;5.60;99.90;;;;;;4938175;29;20023;-93
2022/12/21 07:01:24;;;;;;;6.40;1.15;;;5.50;99.90;;;;;;4936931;29;20024;-93
2022/12/21 07:03:50;;;;;;;7.38;1.30;;;5.50;99.90;;;;;;4936184;29;20031;-94
2022/12/21 07:06:18;;;;;;;4.82;1.02;;;5.50;99.90;;;;;;4938059;29;20034;-93
2022/12/21 07:08:44;;;;;;;9.15;1.52;;;5.40;99.90;;;;;;4937660;29;20086;-94
2022/12/21 07:11:12;;;;;;;5.00;0.82;;;5.40;99.90;;;;;;4939661;29;20075;-94
2022/12/21 07:13:40;;;;;;;4.18;0.82;;;5.40;99.90;;;;;;4941789;29;20038;-94
2022/12/21 07:16:06;;;;;;;7.80;1.30;;;5.40;99.90;;;;;;4937818;29;20136;-93
2022/12/21 07:18:34;;;;;;;5.90;1.33;;;5.40;99.90;;;;;;4934770;29;20063;-93
2022/12/21 07:21:02;;;;;;;7.65;2.38;;;5.40;99.90;;;;;;4935428;29;20028;-92
2022/12/21 07:23:30;;;;;;;7.78;1.00;;;5.40;99.90;;;;;;4934759;29;20045;-91
2022/12/21 07:25:56;;;;;;;4.13;0.70;;;5.40;99.90;;;;;;4934051;29;20019;-91
2022/12/21 07:28:31;;;;;;;4.00;1.00;;;5.40;99.90;;;;;;4933832;29;20031;-91
2022/12/21 07:31:08;;;;;;;6.40;0.80;;;5.40;99.90;;;;;;4932304;29;20486;-90
2022/12/21 07:34:13;;;;;;;2.10;0.55;;;5.40;99.90;;;;;;4938427;29;20032;-91
2022/12/21 07:36:38;;;;;;;4.20;0.70;;;5.40;99.90;;;;;;4926189;29;21597;-91
2022/12/21 07:39:05;;;;;;;2.50;0.52;;;5.40;99.90;;;;;;4936224;29;20019;-91
2022/12/21 07:41:30;;;;;;;2.47;0.45;;;5.40;99.90;;;;;;4944540;29;20027;-91
2022/12/21 07:43:59;;;;;;;3.53;0.50;;;5.40;99.90;;;;;;4943244;29;20028;-90
2022/12/21 07:46:26;;;;;;;1.90;0.60;;;5.40;99.90;;;;;;4935432;29;20042;-91
2022/12/21 07:48:52;;;;;;;1.92;0.60;;;5.30;99.90;;;;;;4938557;29;20027;-90
2022/12/21 07:51:18;;;;;;;4.43;0.93;;;5.30;99.90;;;;;;4938076;29;20032;-92
2022/12/21 07:53:43;;;;;;;1.55;0.50;;;5.30;99.90;;;;;;4937509;29;20379;-91
2022/12/21 07:56:15;;;;;;;9.38;1.02;;;5.30;99.90;;;;;;4938251;29;20055;-90
2022/12/21 07:58:44;;;;;;;4.57;0.75;;;5.30;99.90;;;;;;4931363;29;20059;-93
2022/12/21 08:01:19;;;;;;;2.30;0.60;;;5.20;99.90;;;;;;4954136;29;20032;-90
2022/12/21 08:03:48;;;;;;;6.97;0.80;;;5.20;99.90;;;;;;4936781;29;20028;-92
2022/12/21 08:06:14;;;;;;;1.60;0.93;;;5.20;99.90;;;;;;4938361;29;20473;-93
2022/12/21 08:08:40;;;;;;;4.18;1.40;;;5.20;99.90;;;;;;4937693;29;20031;-92
2022/12/21 08:11:14;;;;;;;1.55;0.82;;;5.10;99.90;;;;;;4938212;29;20135;-93
2022/12/21 08:13:42;;;;;;;6.57;0.75;;;5.10;99.90;;;;;;4937604;29;20075;-93
2022/12/21 08:16:10;;;;;;;4.15;1.10;;;5.10;99.90;;;;;;4936398;29;20055;-93
2022/12/21 08:18:38;;;;;;;4.95;1.80;;;5.10;99.90;;;;;;4936428;29;20051;-92
2022/12/21 08:21:04;;;;;;;7.07;1.33;;;5.10;99.90;;;;;;4937183;29;20019;-92
2022/12/21 08:23:32;;;;;;;10.25;1.60;;;5.10;99.90;;;;;;4937347;29;20079;-91
2022/12/21 08:26:11;;;;;;;6.05;1.60;;;5.10;99.90;;;;;;4937214;29;20020;-91
2022/12/21 08:28:37;;;;;;;6.20;1.88;;;5.10;99.90;;;;;;4937682;29;20028;-92
2022/12/21 08:31:08;;;;;;;6.20;1.58;;;5.10;99.90;;;;;;4937681;29;20039;-91
2022/12/21 08:33:33;;;;;;;;;;;5.20;99.90;;;;;;4938207;29;20535;-90
2022/12/21 08:35:59;;;;;;;4.05;1.52;;;5.10;99.90;;;;;;4937223;29;19998;-91
2022/12/21 08:38:25;;;;;;;4.82;1.08;;;5.20;99.90;;;;;;4937097;29;20027;-92
2022/12/21 08:40:51;;;;;;;2.72;1.23;;;5.20;99.90;;;;;;4937562;29;20083;-92
2022/12/21 08:43:18;;;;;;;4.38;2.03;;;5.20;99.90;;;;;;4936243;29;20031;-92
2022/12/21 08:45:44;;;;;;;4.43;1.40;;;5.30;99.90;;;;;;4931896;29;20072;-91
2022/12/21 08:48:13;;;;;;;6.00;2.28;;;5.30;99.90;;;;;;4936558;29;20126;-93
2022/12/21 08:50:38;;;;;;;13.23;4.90;;;5.30;99.90;;;;;;4941092;29;20028;-94
2022/12/21 08:53:04;;;;;;;7.05;2.70;;;5.30;99.90;;;;;;4938853;29;20095;-94
2022/12/21 08:55:30;;;;;;;4.55;1.90;;;5.30;99.90;;;;;;4932481;29;20095;-94
2022/12/21 08:57:56;;;;;;;4.75;1.40;;;5.30;99.90;;;;;;4918750;29;20032;-95
2022/12/21 09:00:24;;;;;;;4.65;1.40;;;5.30;99.90;;;;;;4918856;29;20726;-95
2022/12/21 09:02:49;;;;;;;5.35;1.48;;;5.30;99.90;;;;;;4919527;29;20471;-95
2022/12/21 09:05:15;;;;;;;6.20;0.90;;;5.40;99.90;;;;;;4918656;29;20032;-94
2022/12/21 09:07:44;;;;;;;3.63;1.00;;;5.40;99.90;;;;;;4918007;29;20481;-94
2022/12/21 09:10:10;;;;;;;9.43;1.77;;;5.40;99.90;;;;;;4918356;29;20036;-94
2022/12/21 09:12:36;;;;;;;7.85;0.88;;;5.40;99.90;;;;;;4924357;29;20039;-95
2022/12/21 09:15:02;;;;;;;6.70;1.05;;;5.40;99.90;;;;;;4936434;29;20027;-94
2022/12/21 09:17:27;;;;;;;4.45;0.98;;;5.40;99.90;;;;;;4935580;29;20023;-95
2022/12/21 09:19:53;;;;;;;5.75;1.10;;;5.40;99.90;;;;;;4935986;29;20034;-92
2022/12/21 09:22:19;;;;;;;3.97;0.98;;;5.40;99.90;;;;;;4935317;29;20031;-93
2022/12/21 09:24:45;;;;;;;2.40;0.73;;;5.40;99.90;;;;;;4933360;29;20091;-94
2022/12/21 09:27:11;;;;;;;6.38;0.88;;;5.50;99.90;;;;;;4917773;29;20036;-95
2022/12/21 09:29:42;;;;;;;5.25;1.77;;;5.60;99.90;;;;;;4918107;29;20028;-96
2022/12/21 09:32:08;;;;;;;5.00;0.77;;;5.70;99.90;;;;;;4917961;29;20131;-94
2022/12/21 09:34:33;;;;;;;6.30;1.95;;;5.80;99.90;;;;;;4918051;29;20052;-94
2022/12/21 09:36:59;;;;;;;9.23;2.05;;;5.80;99.90;;;;;;4919129;29;20038;-94
2022/12/21 09:39:25;;;;;;;6.60;1.90;;;5.90;99.90;;;;;;4920610;29;20078;-94
2022/12/21 09:42:00;;;;;;;6.80;2.30;;;6.00;99.90;;;;;;4923236;29;20445;-94
2022/12/21 09:44:49;;;;;;;10.38;2.08;;;6.00;99.90;;;;;;4926336;29;20036;-94
2022/12/21 09:47:27;;;;;;;5.38;1.52;;;6.00;99.90;;;;;;4925250;29;20028;-93
2022/12/21 09:49:59;;;;;;;3.97;0.98;;;6.10;99.90;;;;;;4925944;29;20032;-92
2022/12/21 09:52:33;;;;;;;8.52;1.10;;;6.10;99.90;;;;;;4928133;29;20055;-93
2022/12/21 09:55:10;;;;;;;6.28;0.82;;;6.30;99.90;;;;;;4924871;29;20049;-94
2022/12/21 09:57:36;;;;;;;4.93;0.82;;;6.40;99.90;;;;;;4923836;29;20036;-94
2022/12/21 10:00:14;;;;;;;4.18;2.28;;;6.60;99.90;;;;;;4927175;29;20040;-93
2022/12/21 10:03:01;;;;;;;9.73;3.63;;;6.80;99.90;;;;;;4928138;29;20043;-94
2022/12/21 10:05:42;;;;;;;3.38;1.95;;;7.00;99.90;;;;;;4930063;29;20040;-92
2022/12/21 10:08:23;;;;;;;5.85;1.20;;;7.20;99.90;;;;;;4930461;29;20035;-95
2022/12/21 10:10:59;;;;;;;7.45;2.63;;;7.30;99.90;;;;;;4923101;29;20168;-93
2022/12/21 10:13:44;;;;;;;8.18;1.45;;;7.40;99.90;;;;;;4920976;29;20020;-94
2022/12/21 10:16:18;;;;;;;6.13;1.40;;;7.40;99.90;;;;;;4922774;29;20111;-94
2022/12/21 10:18:58;;;;;;;4.22;2.17;;;7.60;99.90;;;;;;4919572;29;20025;-94
2022/12/21 10:21:46;;;;;;;3.45;1.60;;;7.80;99.90;;;;;;4918135;29;20040;-95
2022/12/21 10:24:34;;;;;;;2.97;1.10;;;8.00;99.90;;;;;;4919842;29;20032;-95
2022/12/21 10:27:24;;;;;;;5.68;1.67;;;8.30;99.90;;;;;;4921086;29;20067;-96
2022/12/21 10:29:55;;;;;;;6.60;2.10;;;8.40;99.90;;;;;;4922105;29;20032;-96
2022/12/21 10:32:24;;;;;;;5.43;0.77;;;8.60;99.90;;;;;;4904672;29;20040;-95
2022/12/21 10:34:54;;;;;;;4.75;0.80;;;8.80;99.90;;;;;;4925076;29;20052;-95
2022/12/21 10:37:21;;;;;;;3.92;1.00;;;9.00;99.90;;;;;;4922120;29;20116;-96
2022/12/21 10:39:55;;;;;;;5.72;0.80;;;9.10;99.90;;;;;;4920507;29;20494;-96
2022/12/21 10:42:40;;;;;;;8.75;1.40;;;9.30;99.90;;;;;;4923376;29;20036;-95
2022/12/21 10:45:13;;;;;;;4.90;0.90;;;9.40;99.90;;;;;;4926467;29;20084;-95
2022/12/21 10:47:40;;;;;;;3.42;1.27;;;9.40;99.90;;;;;;4922948;29;20031;-94
2022/12/21 10:50:12;;;;;;;2.65;0.80;;;9.50;99.90;;;;;;4924322;29;20039;-94
2022/12/21 10:52:49;;;;;;;5.53;1.20;;;9.50;99.90;;;;;;4944948;29;20485;-95
2022/12/21 10:55:18;;;;;;;7.50;1.10;;;9.70;99.90;;;;;;4931277;29;20058;-94
2022/12/21 10:57:46;;;;;;;3.83;0.90;;;9.80;99.90;;;;;;4950480;29;20055;-95
2022/12/21 11:00:29;;;;;;;3.97;0.95;;;10.00;99.90;;;;;;4937586;29;20028;-96
2022/12/21 11:03:01;;;;;;;5.35;2.05;;;10.10;99.90;;;;;;4940570;29;20055;-94
2022/12/21 11:05:38;;;;;;;3.33;0.95;;;10.30;99.90;;;;;;4938744;29;20046;-94
2022/12/21 11:08:17;;;;;;;8.25;2.03;;;10.50;99.90;;;;;;4937009;29;20035;-94
2022/12/21 11:10:46;;;;;;;3.83;1.60;;;10.60;99.90;;;;;;4937516;29;20035;-96
2022/12/21 11:13:13;;;;;;;7.18;1.08;;;10.60;99.90;;;;;;4938099;29;20031;-96
2022/12/21 11:15:50;;;;;;;7.70;1.67;;;10.70;99.90;;;;;;4938848;29;20024;-96
2022/12/21 11:18:45;;;;;;;7.70;1.27;;;10.80;99.90;;;;;;4938058;29;20032;-94
2022/12/21 11:21:32;;;;;;;6.75;1.08;;;11.00;99.90;;;;;;4938489;29;20051;-95
2022/12/21 11:24:06;;;;;;;4.90;1.00;;;11.10;99.90;;;;;;4938439;29;20031;-96
2022/12/21 11:26:38;;;;;;;5.18;1.30;;;11.30;99.90;;;;;;4938059;29;20040;-93
2022/12/21 11:29:12;;;;;;;8.30;2.08;;;11.50;99.90;;;;;;4936874;29;20027;-93
2022/12/21 11:31:38;;;;;;;7.68;0.90;;;11.60;99.90;;;;;;4936906;29;20059;-94
2022/12/21 11:34:04;;;;;;;6.72;1.00;;;11.50;98.90;;;;;;4939365;29;20027;-95
2022/12/21 11:36:33;;;;;;;5.97;1.17;;;11.20;97.60;;;;;;4937185;29;20032;-95
2022/12/21 11:39:22;;;;;;;7.07;1.60;;;11.00;98.00;;;;;;4942158;29;20034;-96
2022/12/21 11:41:56;;;;;;;7.93;1.17;;;10.90;99.00;;;;;;4937360;29;20102;-96
2022/12/21 11:44:32;;;;;;;8.00;0.80;;;10.80;99.10;;;;;;4938782;29;20060;-96
2022/12/21 11:47:30;;;;;;;4.93;1.08;;;10.60;98.70;;;;;;4938480;29;20042;-95
2022/12/21 11:50:21;;;;;;;7.88;1.25;;;10.50;99.20;;;;;;4936753;29;20394;-94
2022/12/21 11:53:15;;;;;;;9.50;1.65;;;10.40;99.40;;;;;;4938803;29;20043;-93
2022/12/21 11:56:24;;;;;;;9.15;1.88;;;10.60;99.50;;;;;;4902289;29;20040;-94
2022/12/21 11:59:27;;;;;;;6.88;1.10;;;10.70;99.30;;;;;;4919839;29;20050;-96
2022/12/21 12:02:37;;;;;;;5.82;1.30;;;10.90;98.50;;;;;;4914011;29;20041;-94
2022/12/21 12:06:02;;;;;;;7.38;1.55;;;11.10;97.30;;;;;;4911845;29;20123;-96
2022/12/21 12:09:29;;;;;;;7.10;1.08;;;11.40;96.60;;;;;;4908872;29;20036;-96
2022/12/21 12:12:04;;;;;;;11.45;1.85;;;12.00;96.80;;;;;;4916827;29;20040;-95
2022/12/21 12:15:11;;;;;;;5.50;0.90;;;12.60;94.80;;;;;;4919346;29;20039;-95
2022/12/21 12:21:31;;;;;;;4.78;1.00;;;12.90;91.40;;;;;;4901401;29;20076;-94
2022/12/21 12:24:31;;;;;;;3.95;0.93;;;13.00;90.50;;;;;;4915622;29;20054;-95
2022/12/21 12:27:48;;;;;;;7.00;1.40;;;13.00;89.70;;;;;;4885286;29;20029;-94
2022/12/21 12:30:43;;;;;;;5.30;1.20;;;13.10;89.60;;;;;;4915516;29;20025;-96
2022/12/21 12:33:21;;;;;;;6.88;1.33;;;13.30;89.20;;;;;;4909103;29;20138;-94
2022/12/21 12:36:11;;;;;;;;;;;;;;;;;;;;;
2022/12/21 12:39:24;;;;;;;10.20;1.40;;;13.80;88.80;;;;;;4894777;29;20037;-95
2022/12/21 12:42:16;;;;;;;;;;;;;;;;;;;;;
2022/12/21 12:45:34;;;;;;;5.72;1.35;;;13.90;85.40;;;;;;4891383;29;20556;-94
2022/12/21 12:48:20;;;;;;;4.53;1.33;;;13.50;84.90;;;;;;4864915;29;20049;-93
2022/12/21 12:51:15;;;;;;;7.78;1.35;;;13.10;85.80;;;;;;4892334;29;20029;-95
2022/12/21 12:54:11;;;;;;;9.35;1.60;;;12.90;86.50;;;;;;4908125;29;20059;-93
2022/12/21 12:56:46;;;;;;;7.88;1.58;;;13.10;86.90;;;;;;4937266;29;20036;-94
2022/12/21 12:59:12;;;;;;;7.53;1.40;;;13.30;86.30;;;;;;4938350;29;20496;-95
2022/12/21 13:02:32;;;;;;;6.15;1.08;;;13.60;85.90;;;;;;4937664;29;20067;-95
2022/12/21 13:05:37;;;;;;;5.50;1.00;;;13.90;83.80;;;;;;4939398;29;20060;-96
2022/12/21 13:08:21;;;;;;;12.93;1.50;;;13.70;83.90;;;;;;4934131;29;20036;-94
2022/12/21 13:11:13;;;;;;;8.00;1.30;;;13.70;83.70;;;;;;4935370;29;20036;-94
2022/12/21 13:14:11;;;;;;;4.75;1.33;;;13.60;83.20;;;;;;4924697;29;20423;-96
2022/12/21 13:17:07;;;;;;;9.25;1.17;;;13.20;84.10;;;;;;4937989;29;20071;-95
2022/12/21 13:19:45;;;;;;;7.25;1.02;;;12.80;85.10;;;;;;4929058;29;20055;-95
2022/12/21 13:22:15;;;;;;;5.72;1.35;;;12.60;85.90;;;;;;4938773;29;20028;-96
2022/12/21 13:24:56;;;;;;;11.38;1.92;;;12.10;86.40;;;;;;4938067;29;20036;-95
2022/12/21 13:27:29;;;;;;;12.00;1.50;;;11.70;87.70;;;;;;4943788;29;20092;-96
2022/12/21 13:30:12;;;;;;;10.10;1.25;;;11.20;89.00;;;;;;4941740;29;20043;-94
2022/12/21 13:32:50;;;;;;;6.70;1.23;;;10.90;90.20;;;;;;4947911;29;20035;-94
2022/12/21 13:35:30;;;;;;;9.20;1.70;;;10.70;90.90;;;;;;4945663;29;20068;-96
2022/12/21 13:38:20;;;;;;;14.47;1.87;;;10.60;91.50;;;;;;4947229;29;20032;-93
2022/12/21 13:41:05;;;;;;;8.40;1.30;;;10.50;92.00;;;;;;4945911;29;20063;-95
2022/12/21 13:43:43;;;;;;;11.55;1.50;;;10.60;92.50;;;;;;4946415;29;20043;-95
2022/12/21 13:46:10;;;;;;;7.97;1.13;;;11.00;92.50;;;;;;4952913;29;20091;-95